createdAt,value
2023-09-28T00:00:14.289Z,66.40
2023-09-28T00:02:40.888Z,66.20
2023-09-28T00:05:07.474Z,66.10
2023-09-28T00:07:33.999Z,66.10
2023-09-28T00:10:00.559Z,66.20
2023-09-28T00:12:27.114Z,66.10
2023-09-28T00:14:53.638Z,66.10
2023-09-28T00:17:20.238Z,66.10
2023-09-28T00:19:46.875Z,66.00
2023-09-28T00:22:13.469Z,66.00
2023-09-28T00:24:41.242Z,66.10
2023-09-28T00:27:07.772Z,66.00
2023-09-28T00:29:34.305Z,66.00
2023-09-28T00:32:00.862Z,65.90
2023-09-28T00:34:27.426Z,65.90
2023-09-28T00:36:53.924Z,66.00
2023-09-28T00:39:20.436Z,66.00
2023-09-28T00:41:46.958Z,65.90
2023-09-28T00:44:13.553Z,65.90
2023-09-28T00:46:40.178Z,65.90
2023-09-28T00:49:06.842Z,65.90
2023-09-28T00:51:33.370Z,65.90
2023-09-28T00:53:59.922Z,65.90
2023-09-28T00:56:26.489Z,65.80
2023-09-28T00:58:53.094Z,65.90
2023-09-28T01:01:19.637Z,65.80
2023-09-28T01:03:46.193Z,65.70
2023-09-28T01:06:12.736Z,65.70
2023-09-28T01:08:39.271Z,65.80
2023-09-28T01:11:05.845Z,65.80
2023-09-28T01:13:32.382Z,65.80
2023-09-28T01:15:58.897Z,65.60
2023-09-28T01:18:25.507Z,65.70
2023-09-28T01:20:52.058Z,65.70
2023-09-28T01:23:18.621Z,65.80
2023-09-28T01:25:45.220Z,65.80
2023-09-28T01:28:11.851Z,65.70
2023-09-28T01:30:40.829Z,65.70
2023-09-28T01:33:07.364Z,65.70
2023-09-28T01:35:33.878Z,65.70
2023-09-28T01:38:00.459Z,65.60
2023-09-28T01:40:27.022Z,65.60
2023-09-28T01:42:53.541Z,65.70
2023-09-28T01:45:20.225Z,65.70
2023-09-28T01:47:46.750Z,65.60
2023-09-28T01:50:13.372Z,65.60
2023-09-28T01:52:39.968Z,65.60
2023-09-28T01:55:06.509Z,65.70
2023-09-28T01:57:33.039Z,65.70
2023-09-28T01:59:59.569Z,65.50
2023-09-28T02:02:26.152Z,65.60
2023-09-28T02:04:52.753Z,65.60
2023-09-28T02:07:19.313Z,65.60
2023-09-28T02:09:45.864Z,65.60
2023-09-28T02:12:12.414Z,65.60
2023-09-28T02:14:38.956Z,65.50
2023-09-28T02:17:05.579Z,65.50
2023-09-28T02:19:32.158Z,65.50
2023-09-28T02:21:58.675Z,65.50
2023-09-28T02:24:25.262Z,65.40
2023-09-28T02:26:51.832Z,65.40
2023-09-28T02:29:18.401Z,65.40
2023-09-28T02:31:45.050Z,65.30
2023-09-28T02:34:11.674Z,65.30
2023-09-28T02:36:38.176Z,65.30
2023-09-28T02:39:04.776Z,65.30
2023-09-28T02:41:31.307Z,65.30
2023-09-28T02:43:57.883Z,65.20
2023-09-28T02:46:24.433Z,65.20
2023-09-28T02:48:50.996Z,65.20
2023-09-28T02:51:17.517Z,65.20
2023-09-28T02:53:44.029Z,65.10
2023-09-28T02:56:10.581Z,65.00
2023-09-28T02:58:37.161Z,65.10
2023-09-28T03:01:03.702Z,65.10
2023-09-28T03:03:30.305Z,65.10
2023-09-28T03:05:56.833Z,65.00
2023-09-28T03:08:24.498Z,65.00
2023-09-28T03:10:51.013Z,64.90
2023-09-28T03:13:17.548Z,64.80
2023-09-28T03:15:44.083Z,64.90
2023-09-28T03:18:10.635Z,64.90
2023-09-28T03:20:37.155Z,64.90
2023-09-28T03:23:03.707Z,64.90
2023-09-28T03:25:30.249Z,64.90
2023-09-28T03:27:56.766Z,65.00
2023-09-28T03:30:23.375Z,64.90
2023-09-28T03:32:50.204Z,64.80
2023-09-28T03:35:17.092Z,64.90
2023-09-28T03:37:43.678Z,64.80
2023-09-28T03:40:10.269Z,64.80
2023-09-28T03:42:36.801Z,64.80
2023-09-28T03:45:03.360Z,64.70
2023-09-28T03:47:29.922Z,64.70
2023-09-28T03:49:56.497Z,64.70
2023-09-28T03:52:23.044Z,64.80
2023-09-28T03:54:53.416Z,64.80
2023-09-28T03:57:19.938Z,64.70
2023-09-28T03:59:46.469Z,64.70
2023-09-28T04:02:13.015Z,64.80
2023-09-28T04:04:39.589Z,64.80
2023-09-28T04:07:06.143Z,64.70
2023-09-28T04:09:32.751Z,64.70
2023-09-28T04:11:59.260Z,64.70
2023-09-28T04:14:25.820Z,64.70
2023-09-28T04:16:52.369Z,64.80
2023-09-28T04:19:18.913Z,64.70
2023-09-28T04:21:45.437Z,64.60
2023-09-28T04:24:11.963Z,64.70
2023-09-28T04:26:38.492Z,64.70
2023-09-28T04:29:05.053Z,64.80
2023-09-28T04:31:31.671Z,64.80
2023-09-28T04:33:58.193Z,64.80
2023-09-28T04:36:24.731Z,64.80
2023-09-28T04:38:51.258Z,64.70
2023-09-28T04:41:17.851Z,64.80
2023-09-28T04:43:44.468Z,64.80
2023-09-28T04:46:11.079Z,64.90
2023-09-28T04:48:37.619Z,64.80
2023-09-28T04:51:04.161Z,64.80
2023-09-28T04:53:30.668Z,64.80
2023-09-28T04:55:57.205Z,64.80
2023-09-28T04:58:23.771Z,64.90
2023-09-28T05:00:50.289Z,64.90
2023-09-28T05:03:16.838Z,64.90
2023-09-28T05:05:43.421Z,64.80
2023-09-28T05:08:09.961Z,65.00
2023-09-28T05:10:36.504Z,64.90
2023-09-28T05:13:03.029Z,64.90
2023-09-28T05:15:29.614Z,64.80
2023-09-28T05:17:56.195Z,64.90
2023-09-28T05:20:24.383Z,64.80
2023-09-28T05:22:52.793Z,64.80
2023-09-28T05:25:19.380Z,64.90
2023-09-28T05:27:45.891Z,64.80
2023-09-28T05:30:12.415Z,64.90
2023-09-28T05:32:38.990Z,64.90
2023-09-28T05:35:05.601Z,65.00
2023-09-28T05:37:32.133Z,64.90
2023-09-28T05:39:58.660Z,65.00
2023-09-28T05:42:25.188Z,64.90
2023-09-28T05:44:51.732Z,65.00
2023-09-28T05:47:18.284Z,65.10
2023-09-28T05:49:44.834Z,65.00
2023-09-28T05:52:11.374Z,65.00
2023-09-28T05:54:37.880Z,65.00
2023-09-28T05:57:04.402Z,65.20
2023-09-28T05:59:31.002Z,64.90
2023-09-28T06:01:57.701Z,65.00
2023-09-28T06:04:24.243Z,64.90
2023-09-28T06:06:50.814Z,64.90
2023-09-28T06:09:17.308Z,64.90
2023-09-28T06:11:43.862Z,64.90
2023-09-28T06:14:10.412Z,64.90
2023-09-28T06:16:36.976Z,64.90
2023-09-28T06:19:03.508Z,64.90
2023-09-28T06:21:30.032Z,65.00
2023-09-28T06:23:56.617Z,65.80
2023-09-28T06:26:35.361Z,65.00
2023-09-28T06:29:09.020Z,65.00
2023-09-28T06:31:35.634Z,65.10
2023-09-28T06:34:02.365Z,65.10
2023-09-28T06:36:41.565Z,65.20
2023-09-28T06:39:08.894Z,65.10
2023-09-28T06:41:35.424Z,65.20
2023-09-28T06:44:02.002Z,65.10
2023-09-28T06:46:28.576Z,65.30
2023-09-28T06:48:55.367Z,65.10
2023-09-28T06:51:22.111Z,65.10
2023-09-28T06:53:48.654Z,65.10
2023-09-28T06:56:15.575Z,65.10
2023-09-28T06:58:42.522Z,65.10
2023-09-28T07:01:09.045Z,65.10
2023-09-28T07:03:35.627Z,65.00
2023-09-28T07:06:02.210Z,65.10
2023-09-28T07:08:28.834Z,65.00
2023-09-28T07:10:55.434Z,65.00
2023-09-28T07:13:21.990Z,65.10
2023-09-28T07:15:48.595Z,65.10
2023-09-28T07:18:15.210Z,65.10
2023-09-28T07:20:41.745Z,65.70
2023-09-28T07:23:08.346Z,65.10
2023-09-28T07:25:34.879Z,65.10
2023-09-28T07:28:01.430Z,65.20
2023-09-28T07:30:27.972Z,65.00
2023-09-28T07:32:54.617Z,65.20
2023-09-28T07:35:21.355Z,65.30
2023-09-28T07:37:47.945Z,65.20
2023-09-28T07:40:14.486Z,65.10
2023-09-28T07:42:41.025Z,65.30
2023-09-28T07:45:07.570Z,64.90
2023-09-28T07:47:34.243Z,64.90
2023-09-28T07:50:00.914Z,64.90
2023-09-28T07:52:27.452Z,65.00
2023-09-28T07:54:53.991Z,64.70
2023-09-28T07:57:20.499Z,64.80
2023-09-28T07:59:47.010Z,64.90
2023-09-28T08:02:13.541Z,65.00
2023-09-28T08:04:40.101Z,64.90
2023-09-28T08:07:06.607Z,64.90
2023-09-28T08:09:33.154Z,64.80
2023-09-28T08:12:01.879Z,64.70
2023-09-28T08:14:30.042Z,64.80
2023-09-28T08:16:56.708Z,64.80
2023-09-28T08:19:23.275Z,64.80
2023-09-28T08:21:50.098Z,64.70
2023-09-28T08:24:17.515Z,64.80
2023-09-28T08:26:45.329Z,64.80
2023-09-28T08:29:11.915Z,64.80
2023-09-28T08:31:38.512Z,64.70
2023-09-28T08:34:05.023Z,64.90
2023-09-28T08:36:31.543Z,64.90
2023-09-28T08:38:58.052Z,64.90
2023-09-28T08:41:24.625Z,65.00
2023-09-28T08:43:51.174Z,65.00
2023-09-28T08:46:21.634Z,64.90
2023-09-28T08:48:52.342Z,65.00
2023-09-28T08:51:23.671Z,65.00
2023-09-28T08:53:54.048Z,65.10
2023-09-28T08:56:20.814Z,65.20
2023-09-28T08:58:47.377Z,65.20
2023-09-28T09:01:14.045Z,65.30
2023-09-28T09:03:40.780Z,65.30
2023-09-28T09:06:07.412Z,65.40
2023-09-28T09:08:33.951Z,65.50
2023-09-28T09:11:00.527Z,65.40
2023-09-28T09:13:27.097Z,65.40
2023-09-28T09:15:53.650Z,65.50
2023-09-28T09:18:20.531Z,65.50
2023-09-28T09:20:47.188Z,65.50
2023-09-28T09:23:13.799Z,65.50
2023-09-28T09:25:40.347Z,65.60
2023-09-28T09:28:06.905Z,65.60
2023-09-28T09:30:33.430Z,65.60
2023-09-28T09:33:00.080Z,65.60
2023-09-28T09:35:29.883Z,65.60
2023-09-28T09:37:56.493Z,65.70
2023-09-28T09:40:23.050Z,65.70
2023-09-28T09:42:49.564Z,65.90
2023-09-28T09:45:16.065Z,65.80
2023-09-28T09:47:44.454Z,65.60
2023-09-28T09:50:12.109Z,65.90
2023-09-28T09:52:38.690Z,65.90
2023-09-28T09:55:05.221Z,65.90
2023-09-28T09:57:31.814Z,65.80
2023-09-28T10:00:00.253Z,65.90
2023-09-28T10:02:27.107Z,65.70
2023-09-28T10:04:53.673Z,65.80
2023-09-28T10:07:20.213Z,65.90
2023-09-28T10:09:46.729Z,65.90
2023-09-28T10:12:13.249Z,66.00
2023-09-28T10:14:41.711Z,66.00
2023-09-28T10:17:08.305Z,65.90
2023-09-28T10:19:34.916Z,65.80
2023-09-28T10:22:05.755Z,65.90
2023-09-28T10:24:32.314Z,66.00
2023-09-28T10:26:58.914Z,66.00
2023-09-28T10:29:25.549Z,65.90
2023-09-28T10:31:58.335Z,66.00
2023-09-28T10:34:25.502Z,65.90
2023-09-28T10:36:52.061Z,66.00
2023-09-28T10:39:19.046Z,66.00
2023-09-28T10:41:45.567Z,65.90
2023-09-28T10:44:12.124Z,66.00
2023-09-28T10:46:38.684Z,66.00
2023-09-28T10:49:05.299Z,66.00
2023-09-28T10:51:31.924Z,66.00
2023-09-28T10:53:58.494Z,66.10
2023-09-28T10:56:25.919Z,66.00
2023-09-28T10:58:53.836Z,65.90
2023-09-28T11:01:20.489Z,66.00
2023-09-28T11:03:47.197Z,66.10
2023-09-28T11:06:14.261Z,66.10
2023-09-28T11:08:41.138Z,66.30
2023-09-28T11:11:07.985Z,66.10
2023-09-28T11:13:34.640Z,66.20
2023-09-28T11:16:01.181Z,66.20
2023-09-28T11:18:27.717Z,66.40
2023-09-28T11:20:54.250Z,66.20
2023-09-28T11:23:20.902Z,66.30
2023-09-28T11:25:47.559Z,66.30
2023-09-28T11:28:14.120Z,66.40
2023-09-28T11:30:40.771Z,66.40
2023-09-28T11:33:07.455Z,66.40
2023-09-28T11:35:35.864Z,66.20
2023-09-28T11:38:06.026Z,66.30
2023-09-28T11:40:32.569Z,66.40
2023-09-28T11:42:59.114Z,66.50
2023-09-28T11:45:25.692Z,66.40
2023-09-28T11:47:52.305Z,66.40
2023-09-28T11:50:18.924Z,66.50
2023-09-28T11:52:45.452Z,66.30
2023-09-28T11:55:12.077Z,66.50
2023-09-28T11:57:38.636Z,66.50
2023-09-28T12:00:05.222Z,66.50
2023-09-28T12:02:31.898Z,66.60
2023-09-28T12:04:58.540Z,66.60
2023-09-28T12:07:25.065Z,66.70
2023-09-28T12:10:03.783Z,66.70
2023-09-28T12:12:31.440Z,66.70
2023-09-28T12:14:57.996Z,66.80
2023-09-28T12:17:24.899Z,66.80
2023-09-28T12:19:51.601Z,66.80
2023-09-28T12:22:18.154Z,66.80
2023-09-28T12:24:44.658Z,66.80
2023-09-28T12:27:11.202Z,66.80
2023-09-28T12:29:37.757Z,66.90
2023-09-28T12:32:04.420Z,66.90
2023-09-28T12:34:31.765Z,67.00
2023-09-28T12:36:58.412Z,66.90
2023-09-28T12:39:24.931Z,67.00
2023-09-28T12:41:51.461Z,67.00
2023-09-28T12:44:18.872Z,67.00
2023-09-28T12:46:45.722Z,66.90
2023-09-28T12:49:12.361Z,67.00
2023-09-28T12:51:38.897Z,67.00
2023-09-28T12:54:05.433Z,67.00
2023-09-28T12:56:32.216Z,67.00
2023-09-28T12:58:58.881Z,67.10
2023-09-28T13:01:25.427Z,67.00
2023-09-28T13:03:52.282Z,67.20
2023-09-28T13:06:19.055Z,67.10
2023-09-28T13:08:45.609Z,67.20
2023-09-28T13:11:12.582Z,67.20
2023-09-28T13:13:39.168Z,67.30
2023-09-28T13:16:05.696Z,67.20
2023-09-28T13:18:32.225Z,67.30
2023-09-28T13:20:58.772Z,67.20
2023-09-28T13:23:25.328Z,67.30
2023-09-28T13:25:51.896Z,67.30
2023-09-28T13:28:18.649Z,67.40
2023-09-28T13:30:45.223Z,67.50
2023-09-28T13:33:11.780Z,67.50
2023-09-28T13:35:38.702Z,67.50
2023-09-28T13:38:06.010Z,67.50
2023-09-28T13:40:32.537Z,67.60
2023-09-28T13:42:59.101Z,67.70
2023-09-28T13:45:25.777Z,67.60
2023-09-28T13:47:52.512Z,67.70
2023-09-28T13:50:19.206Z,67.80
2023-09-28T13:52:45.786Z,67.80
2023-09-28T13:55:12.310Z,67.80
2023-09-28T13:57:38.851Z,67.90
2023-09-28T14:00:05.569Z,67.90
2023-09-28T14:02:32.225Z,68.00
2023-09-28T14:04:58.821Z,68.00
2023-09-28T14:07:25.362Z,68.00
2023-09-28T14:09:54.821Z,68.00
2023-09-28T14:12:22.655Z,68.10
2023-09-28T14:14:49.156Z,68.00
2023-09-28T14:17:24.862Z,68.00
2023-09-28T14:20:02.233Z,68.10
2023-09-28T14:22:28.813Z,68.20
2023-09-28T14:24:55.349Z,68.20
2023-09-28T14:27:21.873Z,68.20
2023-09-28T14:29:48.402Z,68.20
2023-09-28T14:32:14.986Z,68.20
2023-09-28T14:34:41.553Z,68.40
2023-09-28T14:37:08.114Z,68.40
2023-09-28T14:39:34.657Z,68.40
2023-09-28T14:42:01.251Z,68.40
2023-09-28T14:44:27.882Z,68.40
2023-09-28T14:46:54.421Z,68.40
2023-09-28T14:49:23.977Z,68.50
2023-09-28T14:51:50.503Z,68.50
2023-09-28T14:54:17.047Z,68.50
2023-09-28T14:56:43.643Z,68.50
2023-09-28T14:59:10.307Z,68.60
2023-09-28T15:01:36.907Z,68.60
2023-09-28T15:04:05.232Z,68.70
2023-09-28T15:06:33.103Z,68.60
2023-09-28T15:08:59.644Z,68.70
2023-09-28T15:11:26.193Z,68.60
2023-09-28T15:13:52.844Z,68.70
2023-09-28T15:16:19.465Z,68.70
2023-09-28T15:18:46.010Z,69.40
2023-09-28T15:21:12.540Z,68.70
2023-09-28T15:23:39.101Z,68.80
2023-09-28T15:26:06.016Z,68.70
2023-09-28T15:28:32.589Z,68.80
2023-09-28T15:30:59.133Z,68.80
2023-09-28T15:33:25.795Z,68.80
2023-09-28T15:35:52.444Z,68.90
2023-09-28T15:38:19.037Z,68.90
2023-09-28T15:40:48.034Z,68.90
2023-09-28T15:43:14.562Z,69.00
2023-09-28T15:45:41.100Z,69.00
2023-09-28T15:48:07.685Z,68.90
2023-09-28T15:50:34.310Z,69.60
2023-09-28T15:53:00.860Z,69.00
2023-09-28T15:55:27.382Z,69.00
2023-09-28T15:57:53.891Z,69.00
2023-09-28T16:00:34.908Z,69.00
2023-09-28T16:03:03.756Z,69.00
2023-09-28T16:05:30.404Z,69.00
2023-09-28T16:07:56.969Z,69.00
2023-09-28T16:10:23.529Z,68.90
2023-09-28T16:12:50.060Z,68.90
2023-09-28T16:15:16.616Z,69.00
2023-09-28T16:17:43.207Z,69.00
2023-09-28T16:20:09.846Z,68.90
2023-09-28T16:22:36.453Z,68.90
2023-09-28T16:25:03.052Z,68.90
2023-09-28T16:27:29.550Z,69.00
2023-09-28T16:29:56.066Z,68.90
2023-09-28T16:32:22.650Z,69.10
2023-09-28T16:34:49.189Z,68.90
2023-09-28T16:37:15.730Z,69.00
2023-09-28T16:39:42.277Z,69.00
2023-09-28T16:42:08.831Z,68.90
2023-09-28T16:44:35.415Z,69.00
2023-09-28T16:47:01.999Z,68.90
2023-09-28T16:49:28.518Z,68.80
2023-09-28T16:51:55.076Z,68.90
2023-09-28T16:54:21.589Z,68.80
2023-09-28T16:56:48.132Z,68.80
2023-09-28T16:59:14.734Z,69.00
2023-09-28T17:01:41.327Z,68.90
2023-09-28T17:04:08.023Z,68.80
2023-09-28T17:06:34.632Z,68.70
2023-09-28T17:09:01.149Z,68.80
2023-09-28T17:11:27.745Z,68.90
2023-09-28T17:14:00.123Z,68.90
2023-09-28T17:16:26.731Z,68.90
2023-09-28T17:18:53.468Z,68.80
2023-09-28T17:21:20.109Z,68.80
2023-09-28T17:23:46.676Z,68.90
2023-09-28T17:26:13.318Z,68.80
2023-09-28T17:28:39.902Z,68.90
2023-09-28T17:31:06.441Z,69.00
2023-09-28T17:33:33.049Z,68.90
2023-09-28T17:35:59.611Z,68.90
2023-09-28T17:38:26.197Z,68.90
2023-09-28T17:40:52.742Z,68.80
2023-09-28T17:43:19.290Z,68.90
2023-09-28T17:45:45.815Z,68.90
2023-09-28T17:48:12.410Z,69.00
2023-09-28T17:50:38.959Z,69.00
2023-09-28T17:53:05.536Z,69.10
2023-09-28T17:55:32.105Z,69.10
2023-09-28T17:57:58.704Z,69.10
2023-09-28T18:00:25.277Z,69.10
2023-09-28T18:02:51.902Z,69.10
2023-09-28T18:05:18.679Z,69.20
2023-09-28T18:07:45.290Z,69.00
2023-09-28T18:10:11.832Z,69.20
2023-09-28T18:12:38.370Z,69.20
2023-09-28T18:15:04.907Z,70.00
2023-09-28T18:17:31.501Z,69.20
2023-09-28T18:19:58.087Z,69.20
2023-09-28T18:22:24.628Z,69.10
2023-09-28T18:24:51.138Z,69.20
2023-09-28T18:27:17.689Z,69.40
2023-09-28T18:29:44.255Z,69.20
2023-09-28T18:32:10.816Z,69.10
2023-09-28T18:34:37.359Z,69.10
2023-09-28T18:37:03.898Z,69.20
2023-09-28T18:39:30.468Z,69.30
2023-09-28T18:41:57.059Z,69.20
2023-09-28T18:44:23.623Z,69.10
2023-09-28T18:46:50.213Z,69.20
2023-09-28T18:49:16.771Z,69.00
2023-09-28T18:51:43.297Z,69.20
2023-09-28T18:54:09.848Z,69.20
2023-09-28T18:56:36.429Z,69.20
2023-09-28T18:59:03.008Z,69.20
2023-09-28T19:01:29.542Z,69.20
2023-09-28T19:03:56.292Z,69.20
2023-09-28T19:06:22.948Z,69.20
2023-09-28T19:08:49.558Z,69.30
2023-09-28T19:11:16.226Z,69.30
2023-09-28T19:13:42.803Z,69.40
2023-09-28T19:16:09.368Z,69.30
2023-09-28T19:18:35.998Z,69.40
2023-09-28T19:21:02.624Z,69.30
2023-09-28T19:23:29.201Z,69.30
2023-09-28T19:25:55.719Z,69.90
2023-09-28T19:28:22.274Z,69.30
2023-09-28T19:30:48.796Z,69.30
2023-09-28T19:33:15.395Z,69.30
2023-09-28T19:35:42.011Z,69.30
2023-09-28T19:38:08.542Z,69.30
2023-09-28T19:40:35.078Z,69.40
2023-09-28T19:43:01.604Z,69.30
2023-09-28T19:48:18.064Z,69.20
2023-09-28T19:50:44.763Z,69.20
2023-09-28T19:53:11.310Z,69.30
2023-09-28T19:55:37.989Z,69.30
2023-09-28T19:58:04.513Z,69.30
2023-09-28T20:00:31.052Z,69.20
2023-09-28T20:02:57.672Z,69.20
2023-09-28T20:05:24.288Z,69.30
2023-09-28T20:07:50.833Z,69.30
2023-09-28T20:10:17.459Z,69.20
2023-09-28T20:12:44.026Z,69.30
2023-09-28T20:15:10.632Z,69.10
2023-09-28T20:17:37.202Z,69.00
2023-09-28T20:20:03.770Z,69.00
2023-09-28T20:22:38.347Z,69.10
2023-09-28T20:25:12.226Z,69.00
2023-09-28T20:27:38.752Z,69.00
2023-09-28T20:30:05.294Z,69.00
2023-09-28T20:32:31.878Z,69.00
2023-09-28T20:34:58.441Z,69.00
2023-09-28T20:37:24.950Z,68.90
2023-09-28T20:39:51.460Z,68.90
2023-09-28T20:42:17.993Z,68.90
2023-09-28T20:44:44.601Z,68.90
2023-09-28T20:47:12.285Z,68.80
2023-09-28T20:49:38.820Z,68.90
2023-09-28T20:52:05.355Z,68.90
2023-09-28T20:54:31.881Z,68.90
2023-09-28T20:56:58.429Z,69.00
2023-09-28T20:59:30.382Z,69.00
2023-09-28T21:01:56.968Z,69.00
2023-09-28T21:04:23.566Z,69.00
2023-09-28T21:06:50.314Z,69.10
2023-09-28T21:09:16.843Z,69.00
2023-09-28T21:11:43.433Z,69.00
2023-09-28T21:14:09.951Z,69.00
2023-09-28T21:16:36.515Z,70.00
2023-09-28T21:19:03.122Z,69.20
2023-09-28T21:21:29.758Z,69.20
2023-09-28T21:23:56.310Z,69.20
2023-09-28T21:26:22.844Z,69.10
2023-09-28T21:28:49.394Z,69.20
2023-09-28T21:31:15.957Z,69.10
2023-09-28T21:33:42.521Z,69.30
2023-09-28T21:36:09.072Z,69.20
2023-09-28T21:38:35.609Z,69.30
2023-09-28T21:41:02.169Z,69.30
2023-09-28T21:43:30.332Z,69.40
2023-09-28T21:45:56.917Z,69.30
2023-09-28T21:48:23.500Z,69.30
2023-09-28T21:50:50.125Z,69.30
2023-09-28T21:53:16.777Z,69.30
2023-09-28T21:55:43.320Z,69.30
2023-09-28T21:58:09.856Z,69.40
2023-09-28T22:00:36.384Z,69.30
2023-09-28T22:03:02.998Z,69.30
2023-09-28T22:05:29.580Z,69.40
2023-09-28T22:07:56.187Z,69.40
2023-09-28T22:10:22.727Z,69.50
2023-09-28T22:12:49.274Z,69.50
2023-09-28T22:15:15.973Z,69.50
2023-09-28T22:17:42.530Z,69.50
2023-09-28T22:20:09.096Z,70.30
2023-09-28T22:22:35.621Z,69.60
2023-09-28T22:25:02.126Z,69.60
2023-09-28T22:27:28.688Z,69.60
2023-09-28T22:29:55.244Z,69.60
2023-09-28T22:32:21.802Z,69.50
2023-09-28T22:34:48.318Z,69.60
2023-09-28T22:37:14.835Z,69.70
2023-09-28T22:39:41.358Z,69.70
2023-09-28T22:42:07.892Z,69.70
2023-09-28T22:44:34.444Z,70.40
2023-09-28T22:47:03.798Z,69.80
2023-09-28T22:49:30.833Z,69.70
2023-09-28T22:51:57.373Z,69.80
2023-09-28T22:54:24.394Z,69.80
2023-09-28T22:56:51.011Z,70.00
2023-09-28T22:59:17.571Z,70.00
2023-09-28T23:01:44.109Z,70.00
2023-09-28T23:04:12.475Z,69.90
2023-09-28T23:06:39.022Z,69.90
2023-09-28T23:09:05.554Z,69.90
2023-09-28T23:11:32.139Z,69.90
2023-09-28T23:13:58.699Z,69.90
2023-09-28T23:16:25.229Z,69.90
2023-09-28T23:18:51.744Z,69.90
2023-09-28T23:21:18.270Z,70.00
2023-09-28T23:23:44.818Z,70.10
2023-09-28T23:26:11.350Z,69.90
2023-09-28T23:28:37.885Z,70.00
2023-09-28T23:31:04.467Z,70.00
2023-09-28T23:33:31.266Z,70.10
2023-09-28T23:35:57.962Z,70.00
2023-09-28T23:38:24.636Z,70.00
2023-09-28T23:40:51.177Z,70.10
2023-09-28T23:43:17.693Z,70.10
2023-09-28T23:45:44.220Z,70.10
2023-09-28T23:48:10.818Z,70.10
2023-09-28T23:50:37.567Z,70.10
2023-09-28T23:53:06.477Z,70.00
2023-09-28T23:55:33.072Z,70.00
2023-09-28T23:57:59.648Z,70.20
